createdAt,value
2019-05-07T00:01:34.138Z,97390.97
2019-05-07T00:04:01.977Z,97388.21
2019-05-07T00:06:28.822Z,97388.25
2019-05-07T00:08:56.319Z,97388.51
2019-05-07T00:11:23.766Z,97383.92
2019-05-07T00:13:52.278Z,97393.78
2019-05-07T00:16:18.731Z,97393.11
2019-05-07T00:18:46.215Z,97383.23
2019-05-07T00:21:13.658Z,97384.77
2019-05-07T00:23:43.158Z,97380.84
2019-05-07T00:26:08.602Z,97383.08
2019-05-07T00:28:36.030Z,97384.65
2019-05-07T00:31:03.503Z,97381.78
2019-05-07T00:33:32.353Z,97377.20
2019-05-07T00:35:58.437Z,97368.18
2019-05-07T00:38:25.883Z,97370.30
2019-05-07T00:40:53.719Z,97370.22
2019-05-07T00:43:22.675Z,97375.12
2019-05-07T00:46:04.406Z,97374.65
2019-05-07T00:48:32.880Z,97366.39
2019-05-07T00:53:56.329Z,97358.10
2019-05-07T00:56:23.815Z,97358.95
2019-05-07T00:58:52.748Z,97358.33
2019-05-07T01:01:18.764Z,97352.12
2019-05-07T01:03:46.200Z,97359.34
2019-05-07T01:06:13.646Z,97354.54
2019-05-07T01:08:43.049Z,97354.95
2019-05-07T01:11:08.607Z,97358.56
2019-05-07T01:13:36.043Z,97352.62
2019-05-07T01:16:03.492Z,97348.77
2019-05-07T01:18:32.403Z,97356.02
2019-05-07T01:20:58.559Z,97359.58
2019-05-07T01:23:26.015Z,97359.47
2019-05-07T01:25:53.490Z,97345.69
2019-05-07T01:28:22.320Z,97347.05
2019-05-07T01:30:48.423Z,97342.14
2019-05-07T01:33:35.568Z,97338.17
2019-05-07T01:36:10.448Z,97343.54
2019-05-07T01:38:38.025Z,97353.08
2019-05-07T01:41:06.636Z,97348.75
2019-05-07T01:43:34.297Z,97349.95
2019-05-07T01:46:06.299Z,97342.03
2019-05-07T01:48:33.840Z,97339.11
2019-05-07T01:51:03.446Z,97337.54
2019-05-07T01:53:29.553Z,97345.56
2019-05-07T01:55:57.193Z,97348.05
2019-05-07T01:58:26.833Z,97343.96
2019-05-07T02:00:54.541Z,97342.28
2019-05-07T02:03:28.831Z,97346.53
2019-05-07T02:05:57.587Z,97338.58
2019-05-07T02:08:32.781Z,97335.59
2019-05-07T02:10:58.507Z,97333.81
2019-05-07T02:13:26.074Z,97331.98
2019-05-07T02:15:58.559Z,97327.30
2019-05-07T02:18:21.847Z,97329.80
2019-05-07T02:20:49.246Z,97329.78
2019-05-07T02:23:17.168Z,97331.09
2019-05-07T02:25:44.785Z,97331.09
2019-05-07T02:28:12.918Z,97320.09
2019-05-07T02:30:40.171Z,97325.69
2019-05-07T02:33:07.635Z,97324.39
2019-05-07T02:35:35.169Z,97320.27
2019-05-07T02:38:08.096Z,97322.47
2019-05-07T02:40:35.552Z,97314.45
2019-05-07T02:43:03.166Z,97318.25
2019-05-07T02:45:33.189Z,97319.09
2019-05-07T02:47:58.806Z,97314.47
2019-05-07T02:50:28.134Z,97315.82
2019-05-07T02:52:58.057Z,97314.39
2019-05-07T02:55:25.531Z,97320.38
2019-05-07T02:57:54.011Z,97317.23
2019-05-07T03:00:23.783Z,97327.50
2019-05-07T03:02:48.084Z,97323.83
2019-05-07T03:05:15.556Z,97323.73
2019-05-07T03:07:43.030Z,97326.19
2019-05-07T03:10:13.637Z,97322.70
2019-05-07T03:12:38.007Z,97324.70
2019-05-07T03:15:05.498Z,97320.55
2019-05-07T03:17:33.511Z,97327.53
2019-05-07T03:20:03.169Z,97328.00
2019-05-07T03:22:28.114Z,97338.33
2019-05-07T03:24:56.099Z,97347.66
2019-05-07T03:27:23.846Z,97346.63
2019-05-07T03:29:53.513Z,97344.82
2019-05-07T03:32:27.532Z,97336.22
2019-05-07T03:34:57.449Z,97334.36
2019-05-07T03:37:19.864Z,97332.19
2019-05-07T03:39:46.868Z,97339.25
2019-05-07T03:42:13.907Z,97335.53
2019-05-07T03:47:37.182Z,97332.56
2019-05-07T03:50:04.220Z,97332.13
2019-05-07T03:52:33.530Z,97332.25
2019-05-07T03:54:58.250Z,97329.94
2019-05-07T03:57:25.252Z,97323.00
2019-05-07T03:59:53.355Z,97319.09
2019-05-07T04:02:19.348Z,97328.03
2019-05-07T04:04:46.421Z,97334.09
2019-05-07T04:07:14.151Z,97340.05
2019-05-07T04:09:43.479Z,97335.25
2019-05-07T04:12:07.683Z,97337.67
2019-05-07T04:14:34.931Z,97343.02
2019-05-07T04:17:14.539Z,97350.50
2019-05-07T04:19:28.824Z,97357.09
2019-05-07T04:21:55.844Z,97359.83
2019-05-07T04:24:26.691Z,97360.53
2019-05-07T04:26:55.558Z,97358.95
2019-05-07T04:29:23.194Z,97356.37
2019-05-07T04:31:50.065Z,97363.48
2019-05-07T04:34:17.560Z,97359.66
2019-05-07T04:36:45.017Z,97358.78
2019-05-07T04:39:13.285Z,97357.85
2019-05-07T04:41:39.973Z,97356.98
2019-05-07T04:44:07.421Z,97349.19
2019-05-07T04:46:34.882Z,97350.36
2019-05-07T04:49:03.776Z,97353.38
2019-05-07T04:51:29.842Z,97360.67
2019-05-07T04:53:57.346Z,97351.39
2019-05-07T04:56:24.362Z,97356.02
2019-05-07T04:58:53.107Z,97357.48
2019-05-07T05:01:18.406Z,97358.80
2019-05-07T05:03:45.432Z,97354.44
2019-05-07T05:06:13.721Z,97356.48
2019-05-07T05:08:43.255Z,97354.34
2019-05-07T05:11:07.907Z,97352.02
2019-05-07T05:13:35.394Z,97361.24
2019-05-07T05:16:02.939Z,97359.32
2019-05-07T05:18:29.927Z,97364.87
2019-05-07T05:20:57.814Z,97362.75
2019-05-07T05:23:26.694Z,97360.28
2019-05-07T05:25:54.166Z,97358.11
2019-05-07T05:28:21.973Z,97364.95
2019-05-07T05:30:49.822Z,97369.63
2019-05-07T05:33:17.358Z,97371.48
2019-05-07T05:35:44.862Z,97363.41
2019-05-07T05:38:12.797Z,97368.02
2019-05-07T05:40:42.757Z,97381.23
2019-05-07T05:43:12.861Z,97377.34
2019-05-07T05:45:45.995Z,97379.25
2019-05-07T05:48:13.769Z,97375.25
2019-05-07T05:53:34.970Z,97391.53
2019-05-07T05:56:04.948Z,97397.27
2019-05-07T05:58:47.377Z,97395.58
2019-05-07T06:01:22.443Z,97398.30
2019-05-07T06:03:58.838Z,97395.58
2019-05-07T06:06:29.223Z,97400.67
2019-05-07T06:12:02.337Z,97388.81
2019-05-07T06:14:30.222Z,97390.69
2019-05-07T06:17:13.382Z,97397.34
2019-05-07T06:20:02.775Z,97393.36
2019-05-07T06:22:39.062Z,97391.31
2019-05-07T06:25:07.325Z,97379.72
2019-05-07T06:27:34.847Z,97384.02
2019-05-07T06:30:04.816Z,97389.19
2019-05-07T06:32:31.920Z,97392.66
2019-05-07T06:34:57.293Z,97387.17
2019-05-07T06:37:25.044Z,97387.05
2019-05-07T06:39:54.308Z,97385.64
2019-05-07T06:42:23.738Z,97388.84
2019-05-07T06:44:56.811Z,97383.99
2019-05-07T06:47:24.259Z,97380.30
2019-05-07T06:49:52.343Z,97383.04
2019-05-07T06:52:19.393Z,97378.41
2019-05-07T06:54:46.851Z,97368.00
2019-05-07T06:57:14.615Z,97354.64
2019-05-07T06:59:42.479Z,97362.12
2019-05-07T07:02:15.965Z,97362.31
2019-05-07T07:04:43.659Z,97363.67
2019-05-07T07:07:27.234Z,97366.87
2019-05-07T07:09:53.354Z,97375.95
2019-05-07T07:12:26.442Z,97377.33
2019-05-07T07:14:54.019Z,97365.39
2019-05-07T07:17:22.289Z,97352.73
2019-05-07T07:19:49.076Z,97346.86
2019-05-07T07:22:16.551Z,97340.92
2019-05-07T07:24:44.019Z,97354.78
2019-05-07T07:27:13.202Z,97350.31
2019-05-07T07:29:47.283Z,97356.63
2019-05-07T07:32:14.775Z,97365.84
2019-05-07T07:34:42.914Z,97370.10
2019-05-07T07:37:23.294Z,97365.58
2019-05-07T07:39:52.353Z,97360.59
2019-05-07T07:42:17.482Z,97356.17
2019-05-07T07:44:45.357Z,97351.81
2019-05-07T07:47:12.943Z,97351.95
2019-05-07T07:49:41.942Z,97345.02
2019-05-07T07:52:06.779Z,97337.62
2019-05-07T07:54:33.811Z,97336.31
2019-05-07T07:57:02.323Z,97349.63
2019-05-07T07:59:43.564Z,97343.76
2019-05-07T08:02:12.381Z,97336.47
2019-05-07T08:04:38.646Z,97329.81
2019-05-07T08:07:05.759Z,97322.42
2019-05-07T08:09:32.907Z,97329.24
2019-05-07T08:12:02.422Z,97329.07
2019-05-07T08:14:27.122Z,97326.63
2019-05-07T08:16:54.170Z,97318.34
2019-05-07T08:19:22.734Z,97323.68
2019-05-07T08:21:48.548Z,97318.77
2019-05-07T08:24:16.011Z,97323.91
2019-05-07T08:26:43.482Z,97315.55
2019-05-07T08:29:11.953Z,97304.81
2019-05-07T08:31:42.542Z,97310.45
2019-05-07T08:37:03.005Z,97296.66
2019-05-07T08:39:32.552Z,97298.03
2019-05-07T08:41:58.982Z,97290.70
2019-05-07T08:44:32.526Z,97285.82
2019-05-07T08:47:14.034Z,97288.20
2019-05-07T08:49:43.401Z,97280.08
2019-05-07T08:52:09.384Z,97279.95
2019-05-07T08:54:36.832Z,97278.85
2019-05-07T08:57:05.518Z,97276.77
2019-05-07T08:59:33.660Z,97269.61
2019-05-07T09:02:03.005Z,97262.56
2019-05-07T09:04:29.989Z,97262.05
2019-05-07T09:06:58.406Z,97256.95
2019-05-07T09:09:27.104Z,97254.48
2019-05-07T09:11:54.643Z,97256.02
2019-05-07T09:14:24.481Z,97261.47
2019-05-07T09:16:50.055Z,97256.77
2019-05-07T09:19:17.729Z,97248.80
2019-05-07T09:21:45.409Z,97241.42
2019-05-07T09:24:12.870Z,97243.39
2019-05-07T09:26:41.774Z,97251.39
2019-05-07T09:29:11.684Z,97244.52
2019-05-07T09:31:42.051Z,97232.48
2019-05-07T09:34:08.774Z,97225.91
2019-05-07T09:36:36.615Z,97229.60
2019-05-07T09:39:04.219Z,97224.30
2019-05-07T09:41:32.706Z,97224.13
2019-05-07T09:44:00.048Z,97224.17
2019-05-07T09:46:27.562Z,97218.44
2019-05-07T09:48:55.077Z,97215.34
2019-05-07T09:51:22.719Z,97204.73
2019-05-07T09:53:51.988Z,97208.34
2019-05-07T09:56:17.930Z,97206.06
2019-05-07T09:58:45.409Z,97200.37
2019-05-07T10:01:12.935Z,97197.28
2019-05-07T10:03:42.755Z,97187.46
2019-05-07T10:06:07.978Z,97185.15
2019-05-07T10:08:35.547Z,97185.07
2019-05-07T10:11:03.042Z,97181.68
2019-05-07T10:13:30.486Z,97177.57
2019-05-07T10:15:57.959Z,97184.75
2019-05-07T10:18:25.532Z,97186.52
2019-05-07T10:20:53.150Z,97184.43
2019-05-07T10:23:22.794Z,97179.55
2019-05-07T10:25:48.732Z,97180.69
2019-05-07T10:28:16.196Z,97175.14
2019-05-07T10:30:43.838Z,97177.94
2019-05-07T10:33:12.403Z,97182.15
2019-05-07T10:35:39.691Z,97183.14
2019-05-07T10:38:07.138Z,97177.86
2019-05-07T10:40:34.691Z,97172.16
2019-05-07T10:43:03.073Z,97170.56
2019-05-07T10:45:36.412Z,97174.18
2019-05-07T10:48:05.867Z,97163.25
2019-05-07T10:50:38.873Z,97165.28
2019-05-07T10:53:02.068Z,97161.64
2019-05-07T10:55:28.850Z,97162.64
2019-05-07T10:57:56.360Z,97156.02
2019-05-07T11:00:23.871Z,97149.35
2019-05-07T11:02:51.843Z,97146.35
2019-05-07T11:05:18.859Z,97142.14
2019-05-07T11:07:46.320Z,97137.28
2019-05-07T11:10:13.882Z,97134.73
2019-05-07T11:12:42.466Z,97136.02
2019-05-07T11:15:09.032Z,97126.36
2019-05-07T11:17:41.893Z,97126.31
2019-05-07T11:20:07.703Z,97121.42
2019-05-07T11:22:35.259Z,97111.48
2019-05-07T11:25:03.125Z,97114.59
2019-05-07T11:27:30.314Z,97103.50
2019-05-07T11:29:57.811Z,97103.22
2019-05-07T11:32:24.909Z,97103.72
2019-05-07T11:34:52.851Z,97097.52
2019-05-07T11:37:19.112Z,97085.78
2019-05-07T11:39:46.097Z,97080.59
2019-05-07T11:42:15.270Z,97075.80
2019-05-07T11:44:42.448Z,97073.42
2019-05-07T11:47:15.018Z,97069.38
2019-05-07T11:52:39.623Z,97055.28
2019-05-07T11:55:06.651Z,97054.11
2019-05-07T11:57:33.750Z,97059.25
2019-05-07T12:00:02.803Z,97052.09
2019-05-07T12:02:28.817Z,97050.29
2019-05-07T12:04:56.276Z,97042.38
2019-05-07T12:07:23.783Z,97035.41
2019-05-07T12:09:52.597Z,97034.13
2019-05-07T12:12:17.929Z,97031.10
2019-05-07T12:14:44.905Z,97022.56
2019-05-07T12:17:12.052Z,97016.81
2019-05-07T12:19:38.949Z,97012.91
2019-05-07T12:22:05.979Z,97015.22
2019-05-07T12:24:32.969Z,97012.33
2019-05-07T12:26:59.965Z,97012.00
2019-05-07T12:29:26.977Z,96998.03
2019-05-07T12:31:55.851Z,96994.41
2019-05-07T12:34:22.937Z,96985.99
2019-05-07T12:36:49.840Z,96989.11
2019-05-07T12:39:16.822Z,96985.80
2019-05-07T12:41:43.829Z,96990.56
2019-05-07T12:44:12.749Z,96986.59
2019-05-07T12:46:37.932Z,96979.76
2019-05-07T12:49:04.956Z,96983.36
2019-05-07T12:51:37.229Z,96987.19
2019-05-07T12:54:19.615Z,96979.72
2019-05-07T12:56:46.663Z,96979.45
2019-05-07T12:59:14.041Z,96969.36
2019-05-07T13:01:52.888Z,96966.98
2019-05-07T13:04:32.365Z,96964.05
2019-05-07T13:07:02.487Z,96960.53
2019-05-07T13:09:38.581Z,96955.56
2019-05-07T13:12:05.922Z,96954.11
2019-05-07T13:14:35.134Z,96956.12
2019-05-07T13:17:02.976Z,96941.89
2019-05-07T13:22:10.049Z,96938.10
2019-05-07T13:24:38.967Z,96935.73
2019-05-07T13:27:09.386Z,96929.27
2019-05-07T13:29:44.920Z,96925.17
2019-05-07T13:32:12.202Z,96927.13
2019-05-07T13:34:38.449Z,96912.08
2019-05-07T13:37:21.922Z,96921.32
2019-05-07T13:39:59.106Z,96911.07
2019-05-07T13:42:52.274Z,96911.45
2019-05-07T13:45:24.495Z,96921.34
2019-05-07T13:47:51.781Z,96912.88
2019-05-07T13:50:18.652Z,96914.70
2019-05-07T13:52:46.520Z,96910.42
2019-05-07T13:55:14.011Z,96899.59
2019-05-07T13:57:41.713Z,96896.79
2019-05-07T14:00:09.530Z,96894.39
2019-05-07T14:02:37.028Z,96895.55
2019-05-07T14:05:04.712Z,96898.09
2019-05-07T14:07:33.146Z,96888.44
2019-05-07T14:10:02.086Z,96888.95
2019-05-07T14:12:28.808Z,96895.50
2019-05-07T14:14:56.295Z,96887.38
2019-05-07T14:17:23.808Z,96885.00
2019-05-07T14:19:53.081Z,96878.70
2019-05-07T14:22:19.378Z,96880.41
2019-05-07T14:24:47.857Z,96869.54
2019-05-07T14:27:17.027Z,96872.01
2019-05-07T14:29:44.761Z,96861.61
2019-05-07T14:32:13.156Z,96865.35
2019-05-07T14:34:46.828Z,96859.86
2019-05-07T14:37:16.819Z,96851.39
2019-05-07T14:39:44.566Z,96859.74
2019-05-07T14:42:12.895Z,96856.98
2019-05-07T14:44:45.574Z,96857.91
2019-05-07T14:47:13.231Z,96853.94
2019-05-07T14:49:41.559Z,96850.30
2019-05-07T14:52:09.498Z,96846.42
2019-05-07T14:54:37.674Z,96847.17
2019-05-07T14:57:06.196Z,96851.27
2019-05-07T14:59:33.780Z,96838.09
2019-05-07T15:02:02.868Z,96842.37
2019-05-07T15:04:30.072Z,96831.25
2019-05-07T15:07:04.790Z,96833.34
2019-05-07T15:09:32.407Z,96829.50
2019-05-07T15:12:02.220Z,96833.91
2019-05-07T15:14:29.212Z,96829.48
2019-05-07T15:16:56.864Z,96819.93
2019-05-07T15:19:25.206Z,96813.93
2019-05-07T15:21:53.688Z,96820.58
2019-05-07T15:24:22.080Z,96808.91
2019-05-07T15:26:49.733Z,96805.40
2019-05-07T15:29:17.219Z,96801.19
2019-05-07T15:31:51.712Z,96801.76
2019-05-07T15:34:19.089Z,96794.42
2019-05-07T15:36:47.737Z,96791.24
2019-05-07T15:39:15.190Z,96792.88
2019-05-07T15:41:42.741Z,96790.68
2019-05-07T15:44:14.401Z,96797.19
2019-05-07T15:46:42.806Z,96787.39
2019-05-07T15:49:09.795Z,96789.06
2019-05-07T15:51:38.475Z,96781.92
2019-05-07T15:54:06.143Z,96775.85
2019-05-07T15:56:38.441Z,96771.72
2019-05-07T15:59:05.910Z,96775.02
2019-05-07T16:01:34.528Z,96776.87
2019-05-07T16:04:02.811Z,96764.66
2019-05-07T16:06:32.205Z,96774.37
2019-05-07T16:08:59.016Z,96763.84
2019-05-07T16:11:26.495Z,96754.98
2019-05-07T16:13:59.649Z,96749.60
2019-05-07T16:16:27.928Z,96744.36
2019-05-07T16:19:01.895Z,96746.05
2019-05-07T16:21:28.817Z,96749.02
2019-05-07T16:23:56.885Z,96751.95
2019-05-07T16:26:24.383Z,96753.27
2019-05-07T16:28:58.856Z,96751.80
2019-05-07T16:31:26.795Z,96746.20
2019-05-07T16:33:54.706Z,96742.97
2019-05-07T16:36:28.748Z,96748.88
2019-05-07T16:38:57.054Z,96739.75
2019-05-07T16:41:26.622Z,96740.57
2019-05-07T16:43:54.153Z,96735.44
2019-05-07T16:46:22.544Z,96733.19
2019-05-07T16:48:49.858Z,96729.79
2019-05-07T16:51:17.326Z,96720.88
2019-05-07T16:53:45.654Z,96720.41
2019-05-07T16:56:14.481Z,96718.93
2019-05-07T16:58:43.890Z,96726.23
2019-05-07T17:01:13.114Z,96714.13
2019-05-07T17:03:47.136Z,96725.09
2019-05-07T17:06:17.347Z,96720.20
2019-05-07T17:08:47.387Z,96714.73
2019-05-07T17:11:18.122Z,96718.79
2019-05-07T17:13:46.702Z,96712.61
2019-05-07T17:16:14.180Z,96721.31
2019-05-07T17:18:42.916Z,96722.28
2019-05-07T17:21:12.214Z,96715.27
2019-05-07T17:23:44.611Z,96716.17
2019-05-07T17:26:07.067Z,96716.61
2019-05-07T17:28:34.523Z,96713.43
2019-05-07T17:31:03.068Z,96718.29
2019-05-07T17:33:31.816Z,96720.04
2019-05-07T17:35:57.046Z,96718.68
2019-05-07T17:38:24.544Z,96718.36
2019-05-07T17:41:09.876Z,96716.71
2019-05-07T17:43:24.618Z,96708.03
2019-05-07T17:45:52.452Z,96712.14
2019-05-07T17:48:19.705Z,96713.38
2019-05-07T17:50:47.202Z,96715.52
2019-05-07T17:53:14.887Z,96710.98
2019-05-07T17:55:43.643Z,96709.32
2019-05-07T17:58:12.888Z,96707.36
2019-05-07T18:00:38.861Z,96710.84
2019-05-07T18:03:10.234Z,96715.34
2019-05-07T18:05:37.712Z,96716.63
2019-05-07T18:08:05.186Z,96716.03
2019-05-07T18:10:32.975Z,96713.40
2019-05-07T18:13:00.520Z,96705.07
2019-05-07T18:15:27.991Z,96712.34
2019-05-07T18:18:00.301Z,96717.25
2019-05-07T18:20:25.946Z,96712.67
2019-05-07T18:22:53.532Z,96705.83
2019-05-07T18:25:21.747Z,96700.39
2019-05-07T18:27:48.574Z,96706.27
2019-05-07T18:30:16.119Z,96699.01
2019-05-07T18:32:44.536Z,96700.75
2019-05-07T18:35:12.604Z,96711.62
2019-05-07T18:37:41.713Z,96711.13
2019-05-07T18:40:07.332Z,96708.49
2019-05-07T18:42:34.808Z,96720.80
2019-05-07T18:45:02.340Z,96717.66
2019-05-07T18:47:29.798Z,96717.88
2019-05-07T18:49:57.370Z,96721.55
2019-05-07T18:52:25.020Z,96722.03
2019-05-07T18:54:52.469Z,96723.89
2019-05-07T18:57:22.244Z,96728.63
2019-05-07T18:59:48.258Z,96725.57
2019-05-07T19:02:15.760Z,96735.61
2019-05-07T19:04:43.287Z,96739.58
2019-05-07T19:07:13.045Z,96737.69
2019-05-07T19:09:38.254Z,96735.95
2019-05-07T19:12:05.846Z,96732.05
2019-05-07T19:14:33.439Z,96736.80
2019-05-07T19:17:03.006Z,96735.41
2019-05-07T19:19:28.464Z,96730.98
2019-05-07T19:21:55.931Z,96733.17
2019-05-07T19:24:26.224Z,96731.34
2019-05-07T19:26:52.882Z,96737.30
2019-05-07T19:29:18.631Z,96728.55
2019-05-07T19:31:46.853Z,96731.28
2019-05-07T19:34:14.409Z,96740.88
2019-05-07T19:36:42.440Z,96743.43
2019-05-07T19:39:09.412Z,96744.52
2019-05-07T19:41:36.923Z,96749.32
2019-05-07T19:44:04.402Z,96752.59
2019-05-07T19:46:32.420Z,96762.13
2019-05-07T19:48:59.915Z,96755.40
2019-05-07T19:51:27.396Z,96755.34
2019-05-07T19:53:55.678Z,96754.73
2019-05-07T19:56:23.254Z,96759.00
2019-05-07T19:58:52.586Z,96756.57
2019-05-07T20:01:18.469Z,96758.80
2019-05-07T20:03:46.114Z,96760.36
2019-05-07T20:06:13.724Z,96748.28
2019-05-07T20:08:43.670Z,96756.48
2019-05-07T20:11:12.034Z,96739.71
2019-05-07T20:13:41.653Z,96739.14
2019-05-07T20:16:24.677Z,96733.27
2019-05-07T20:18:52.505Z,96739.63
2019-05-07T20:21:22.692Z,96732.02
2019-05-07T20:23:48.407Z,96738.29
2019-05-07T20:26:15.892Z,96728.16
2019-05-07T20:28:43.477Z,96725.67
2019-05-07T20:31:12.174Z,96725.52
2019-05-07T20:33:43.797Z,96731.21
2019-05-07T20:36:11.254Z,96727.73
2019-05-07T20:38:38.892Z,96730.59
2019-05-07T20:41:06.545Z,96716.17
2019-05-07T20:43:33.999Z,96721.41
2019-05-07T20:46:02.649Z,96706.98
2019-05-07T20:48:32.746Z,96706.54
2019-05-07T20:51:00.518Z,96710.36
2019-05-07T20:53:34.740Z,96708.70
2019-05-07T20:56:04.473Z,96717.19
2019-05-07T20:58:32.862Z,96715.13
2019-05-07T21:00:59.603Z,96714.97
2019-05-07T21:03:27.049Z,96718.82
2019-05-07T21:05:54.553Z,96723.09
2019-05-07T21:08:23.302Z,96724.63
2019-05-07T21:10:53.238Z,96724.88
2019-05-07T21:13:28.526Z,96728.84
2019-05-07T21:15:46.061Z,96722.04
2019-05-07T21:18:13.550Z,96721.97
2019-05-07T21:20:42.072Z,96718.16
2019-05-07T21:23:09.030Z,96719.90
2019-05-07T21:25:43.555Z,96717.79
2019-05-07T21:28:04.311Z,96713.91
2019-05-07T21:30:32.920Z,96715.31
2019-05-07T21:33:00.970Z,96712.36
2019-05-07T21:35:28.960Z,96713.42
2019-05-07T21:37:56.656Z,96717.23
2019-05-07T21:40:25.688Z,96719.09
2019-05-07T21:42:53.387Z,96718.60
2019-05-07T21:45:23.837Z,96715.51
2019-05-07T21:47:52.055Z,96720.15
2019-05-07T21:50:19.150Z,96717.88
2019-05-07T21:53:04.235Z,96712.92
2019-05-07T21:55:33.515Z,96720.23
2019-05-07T21:58:06.768Z,96719.53
2019-05-07T22:00:44.158Z,96722.38
2019-05-07T22:03:12.598Z,96719.69
2019-05-07T22:05:44.062Z,96713.83
2019-05-07T22:08:07.684Z,96707.91
2019-05-07T22:10:35.146Z,96711.39
2019-05-07T22:13:03.284Z,96717.86
2019-05-07T22:15:31.902Z,96710.83
2019-05-07T22:17:57.685Z,96712.85
2019-05-07T22:20:25.171Z,96715.37
2019-05-07T22:22:52.656Z,96713.91
2019-05-07T22:25:22.159Z,96709.73
2019-05-07T22:27:47.639Z,96712.25
2019-05-07T22:30:17.730Z,96706.38
2019-05-07T22:32:45.936Z,96709.81
2019-05-07T22:35:18.099Z,96704.98
2019-05-07T22:37:45.561Z,96706.31
2019-05-07T22:40:13.068Z,96702.84
2019-05-07T22:42:40.502Z,96696.39
2019-05-07T22:45:07.961Z,96695.90
2019-05-07T22:47:35.412Z,96688.27
2019-05-07T22:50:02.993Z,96685.30
2019-05-07T22:52:32.133Z,96689.81
2019-05-07T22:54:58.131Z,96685.52
2019-05-07T22:57:41.851Z,96683.36
2019-05-07T23:00:06.986Z,96677.30
2019-05-07T23:02:34.474Z,96669.70
2019-05-07T23:05:02.855Z,96668.96
2019-05-07T23:07:29.450Z,96678.08
2019-05-07T23:09:56.944Z,96683.53
2019-05-07T23:12:24.395Z,96688.25
2019-05-07T23:14:53.610Z,96683.25
2019-05-07T23:17:19.343Z,96676.77
2019-05-07T23:19:46.783Z,96663.91
2019-05-07T23:22:14.283Z,96646.67
2019-05-07T23:24:42.607Z,96639.48
2019-05-07T23:27:09.250Z,96627.88
2019-05-07T23:29:36.782Z,96637.95
2019-05-07T23:32:04.230Z,96633.95
2019-05-07T23:34:32.587Z,96639.23
2019-05-07T23:36:59.171Z,96638.23
2019-05-07T23:39:29.762Z,96642.91
2019-05-07T23:41:57.203Z,96645.27
2019-05-07T23:44:24.691Z,96648.20
2019-05-07T23:46:52.166Z,96639.02
2019-05-07T23:49:19.604Z,96636.95
2019-05-07T23:51:47.062Z,96640.92
2019-05-07T23:54:14.508Z,96645.63
2019-05-07T23:56:42.769Z,96648.77
2019-05-07T23:59:09.493Z,96645.10
